Time;durP1;ratioP1;P1;durP2;ratioP2;P2;SDS_P1;SDS_P2;PMS_P1;PMS_P2;Temp;Humidity;BMP_temperature;BMP_pressure;BME280_temperature;BME280_humidity;BME280_pressure;Samples;Min_cycle;Max_cycle;Signal;HPM_P1;HPM_P2
2022/10/09 00:00:39;;;;;;;20.85;4.20;;;;;;;;;;5053616;28;20045;-74
2022/10/09 00:03:25;;;;;;;13.80;3.40;;;;;;;;;;5052610;28;20045;-70
2022/10/09 00:05:51;;;;;;;19.73;3.88;;;;;;;;;;5052206;28;20041;-75
2022/10/09 00:08:17;;;;;;;13.48;3.15;;;;;;;;;;5048237;28;20431;-74
2022/10/09 00:10:43;;;;;;;10.75;2.90;;;;;;;;;;5058857;28;20698;-67
2022/10/09 00:13:10;;;;;;;10.88;4.15;;;;;;;;;;5066519;28;20041;-71
2022/10/09 00:15:41;;;;;;;14.45;3.47;;;;;;;;;;5062765;28;20071;-73
2022/10/09 00:18:09;;;;;;;11.27;2.25;;;;;;;;;;5065649;28;20037;-68
2022/10/09 00:20:37;;;;;;;15.10;3.30;;;;;;;;;;5067140;28;20045;-72
2022/10/09 00:23:03;;;;;;;10.15;2.60;;;;;;;;;;5052349;28;20416;-72
2022/10/09 00:25:29;;;;;;;10.30;2.60;;;;;;;;;;5053218;28;20091;-70
2022/10/09 00:27:58;;;;;;;13.13;2.92;;;;;;;;;;5050605;28;20049;-70
2022/10/09 00:30:25;;;;;;;11.70;2.40;;;;;;;;;;5043332;28;20406;-70
2022/10/09 00:32:51;;;;;;;12.90;2.90;;;;;;;;;;5051871;28;20047;-73
2022/10/09 00:35:17;;;;;;;10.32;2.72;;;;;;;;;;5052553;28;20049;-73
2022/10/09 00:37:43;;;;;;;14.35;2.85;;;;;;;;;;5048415;28;20037;-72
2022/10/09 00:40:09;;;;;;;13.77;3.25;;;;;;;;;;5042974;28;20565;-67
2022/10/09 00:42:35;;;;;;;15.43;2.55;;;;;;;;;;5050841;28;20040;-69
2022/10/09 00:45:02;;;;;;;15.18;2.53;;;;;;;;;;5049825;28;20477;-70
2022/10/09 00:48:06;;;;;;;17.25;2.78;;;;;;;;;;5050198;28;20099;-70
2022/10/09 00:50:46;;;;;;;12.18;2.58;;;;;;;;;;5002996;28;20495;-71
2022/10/09 00:53:15;;;;;;;11.73;2.63;;;;;;;;;;5010457;28;20150;-71
2022/10/09 00:55:42;;;;;;;11.18;2.70;;;;;;;;;;5004759;28;20066;-71
2022/10/09 00:58:10;;;;;;;15.75;3.00;;;;;;;;;;5000181;28;20046;-72
2022/10/09 01:00:36;;;;;;;13.55;2.85;;;;;;;;;;5009739;28;20042;-70
2022/10/09 01:03:02;;;;;;;14.75;2.70;;;;;;;;;;5002014;28;20526;-71
2022/10/09 01:05:43;;;;;;;10.65;2.03;;;;;;;;;;5009487;28;20212;-69
2022/10/09 01:08:43;;;;;;;12.77;2.92;;;;;;;;;;4990680;28;20047;-71
2022/10/09 01:11:43;;;;;;;13.15;2.58;;;;;;;;;;4992953;28;20127;-70
2022/10/09 01:14:15;;;;;;;15.55;3.05;;;;;;;;;;5001712;28;20104;-72
2022/10/09 01:16:46;;;;;;;8.63;2.70;;;;;;;;;;5005388;28;20101;-72
2022/10/09 01:19:33;;;;;;;16.67;3.20;;;;;;;;;;4998811;28;20046;-72
2022/10/09 01:22:22;;;;;;;12.50;2.83;;;;;;;;;;5007710;28;20065;-70
2022/10/09 01:24:59;;;;;;;11.55;3.63;;;;;;;;;;5024207;28;20053;-71
2022/10/09 01:27:27;;;;;;;13.57;3.15;;;;;;;;;;5051509;28;20368;-70
2022/10/09 01:30:00;;;;;;;16.38;3.13;;;;;;;;;;5049685;28;20052;-69
2022/10/09 01:32:31;;;;;;;12.48;2.80;;;;;;;;;;5041235;28;20048;-70
2022/10/09 01:34:58;;;;;;;16.20;2.65;;;;;;;;;;5037728;28;20056;-70
2022/10/09 01:37:25;;;;;;;11.48;2.72;;;;;;;;;;5042998;28;20060;-70
2022/10/09 01:39:52;;;;;;;10.10;3.13;;;;;;;;;;5051211;28;20041;-71
2022/10/09 01:42:21;;;;;;;20.02;3.15;;;;;;;;;;5050412;28;20049;-69
2022/10/09 01:44:46;;;;;;;11.55;2.53;;;;;;;;;;5052239;28;20045;-70
2022/10/09 01:47:15;;;;;;;11.45;2.55;;;;;;;;;;5052963;28;20076;-71
2022/10/09 01:49:47;;;;;;;10.30;2.53;;;;;;;;;;5054852;28;20056;-68
2022/10/09 01:52:42;;;;;;;6.90;2.55;;;;;;;;;;5045921;28;20130;-73
2022/10/09 01:55:23;;;;;;;;;;;;;;;;;;5031709;28;20060;-68
2022/10/09 01:58:04;;;;;;;11.05;2.70;;;;;;;;;;5048428;28;20382;-69
2022/10/09 02:00:34;;;;;;;10.00;2.97;;;;;;;;;;5049807;28;20113;-72
2022/10/09 02:03:03;;;;;;;9.80;2.72;;;;;;;;;;5044485;28;21082;-71
2022/10/09 02:05:30;;;;;;;9.82;2.35;;;;;;;;;;5045234;28;20081;-69
2022/10/09 02:07:57;;;;;;;13.40;2.28;;;;;;;;;;5045004;28;20049;-70
2022/10/09 02:10:24;;;;;;;8.10;2.40;;;;;;;;;;5034172;28;20410;-70
2022/10/09 02:12:53;;;;;;;13.18;2.67;;;;;;;;;;5049972;28;20049;-68
2022/10/09 02:15:23;;;;;;;13.38;2.72;;;;;;;;;;5050441;28;20053;-71
2022/10/09 02:17:53;;;;;;;10.65;2.30;;;;;;;;;;5052422;28;20052;-69
2022/10/09 02:20:26;;;;;;;10.52;2.35;;;;;;;;;;5051650;28;20048;-72
2022/10/09 02:22:54;;;;;;;9.65;2.67;;;;;;;;;;5046845;28;20063;-71
2022/10/09 02:25:20;;;;;;;13.63;2.67;;;;;;;;;;5041972;28;20053;-68
2022/10/09 02:27:47;;;;;;;11.25;2.42;;;;;;;;;;5045954;28;20513;-69
2022/10/09 02:30:14;;;;;;;13.00;2.72;;;;;;;;;;5049192;28;20134;-68
2022/10/09 02:32:40;;;;;;;7.28;2.13;;;;;;;;;;5047735;28;20056;-70
2022/10/09 02:35:07;;;;;;;9.65;2.40;;;;;;;;;;5053131;28;20411;-70
2022/10/09 02:37:33;;;;;;;10.13;2.50;;;;;;;;;;5049884;28;20044;-67
2022/10/09 02:39:58;;;;;;;10.73;2.20;;;;;;;;;;5052169;28;20045;-73
2022/10/09 02:42:24;;;;;;;8.65;2.50;;;;;;;;;;5044518;28;20792;-67
2022/10/09 02:44:51;;;;;;;10.32;2.95;;;;;;;;;;5040554;28;20049;-70
2022/10/09 02:47:17;;;;;;;9.95;2.83;;;;;;;;;;5049397;28;20052;-70
2022/10/09 02:49:43;;;;;;;9.68;2.92;;;;;;;;;;5045916;28;20037;-73
2022/10/09 02:52:09;;;;;;;11.20;3.00;;;;;;;;;;5048251;28;20109;-67
2022/10/09 02:54:35;;;;;;;12.70;2.60;;;;;;;;;;5047947;28;20060;-70
2022/10/09 02:57:00;;;;;;;16.25;3.10;;;;;;;;;;5046815;28;20041;-72
2022/10/09 02:59:27;;;;;;;13.95;3.03;;;;;;;;;;5042035;28;20049;-72
2022/10/09 03:01:52;;;;;;;10.98;3.13;;;;;;;;;;5046992;28;20057;-72
2022/10/09 03:04:18;;;;;;;12.05;3.33;;;;;;;;;;5045744;28;20395;-70
2022/10/09 03:06:44;;;;;;;9.07;2.67;;;;;;;;;;5045121;28;20090;-69
2022/10/09 03:09:10;;;;;;;10.63;2.92;;;;;;;;;;5046209;28;20041;-71
2022/10/09 03:11:35;;;;;;;10.45;3.10;;;;;;;;;;5040749;28;20056;-71
2022/10/09 03:14:01;;;;;;;13.23;4.03;;;;;;;;;;5048335;28;20045;-71
2022/10/09 03:16:27;;;;;;;12.77;3.38;;;;;;;;;;5047824;28;20049;-69
2022/10/09 03:18:54;;;;;;;11.75;3.45;;;;;;;;;;5047505;28;20137;-71
2022/10/09 03:21:23;;;;;;;10.50;2.90;;;;;;;;;;5051437;28;20053;-70
2022/10/09 03:23:49;;;;;;;11.75;3.20;;;;;;;;;;5033544;28;20535;-69
2022/10/09 03:26:18;;;;;;;12.68;3.22;;;;;;;;;;5048477;28;20061;-68
2022/10/09 03:28:47;;;;;;;10.48;3.88;;;;;;;;;;5038250;28;20045;-70
2022/10/09 03:31:14;;;;;;;7.43;3.03;;;;;;;;;;5046780;28;20094;-67
2022/10/09 03:33:40;;;;;;;15.23;3.33;;;;;;;;;;5039631;28;20095;-67
2022/10/09 03:36:07;;;;;;;12.50;3.00;;;;;;;;;;5044503;28;20060;-68
2022/10/09 03:38:33;;;;;;;16.90;3.13;;;;;;;;;;5047033;28;20453;-68
2022/10/09 03:41:00;;;;;;;10.38;3.22;;;;;;;;;;5048635;28;20124;-69
2022/10/09 03:43:27;;;;;;;9.02;3.42;;;;;;;;;;5047419;28;20048;-68
2022/10/09 03:45:53;;;;;;;9.93;3.20;;;;;;;;;;5051456;28;20045;-71
2022/10/09 03:48:20;;;;;;;13.10;2.95;;;;;;;;;;5049394;28;20037;-67
2022/10/09 03:50:46;;;;;;;13.05;3.38;;;;;;;;;;5038488;28;20033;-67
2022/10/09 03:53:12;;;;;;;11.77;3.47;;;;;;;;;;5035404;28;20049;-71
2022/10/09 03:55:38;;;;;;;11.73;3.15;;;;;;;;;;5045798;28;20041;-70
2022/10/09 03:58:05;;;;;;;12.32;3.05;;;;;;;;;;5046131;28;20363;-69
2022/10/09 04:00:31;;;;;;;13.50;3.60;;;;;;;;;;5046846;28;20041;-68
2022/10/09 04:02:57;;;;;;;13.93;3.55;;;;;;;;;;5044935;28;20064;-68
2022/10/09 04:05:23;;;;;;;7.10;3.25;;;;;;;;;;5047659;28;20053;-69
2022/10/09 04:07:49;;;;;;;10.07;3.95;;;;;;;;;;5039006;28;20055;-70
2022/10/09 04:10:15;;;;;;;10.05;3.03;;;;;;;;;;5046780;28;20057;-70
2022/10/09 04:12:41;;;;;;;9.57;3.33;;;;;;;;;;5045258;28;20045;-71
2022/10/09 04:15:07;;;;;;;14.88;3.20;;;;;;;;;;5043984;28;20044;-68
2022/10/09 04:17:33;;;;;;;15.15;3.58;;;;;;;;;;5047197;28;20041;-69
2022/10/09 04:19:59;;;;;;;10.80;3.15;;;;;;;;;;5046192;28;20056;-70
2022/10/09 04:22:25;;;;;;;14.00;3.50;;;;;;;;;;5044767;28;20633;-68
2022/10/09 04:24:51;;;;;;;14.43;3.15;;;;;;;;;;5044341;28;20095;-69
2022/10/09 04:27:17;;;;;;;14.90;3.28;;;;;;;;;;5043453;28;20072;-70
2022/10/09 04:29:42;;;;;;;12.70;3.13;;;;;;;;;;5042381;28;20475;-66
2022/10/09 04:32:08;;;;;;;12.63;3.55;;;;;;;;;;5046867;28;20048;-70
2022/10/09 04:34:34;;;;;;;9.38;3.03;;;;;;;;;;5045776;28;20123;-68
2022/10/09 04:37:00;;;;;;;12.20;3.72;;;;;;;;;;5043149;28;20582;-69
2022/10/09 04:39:26;;;;;;;15.05;3.47;;;;;;;;;;5038504;28;20043;-70
2022/10/09 04:41:52;;;;;;;15.82;3.13;;;;;;;;;;5043444;28;20124;-68
2022/10/09 04:44:18;;;;;;;12.00;3.45;;;;;;;;;;5046006;28;20139;-71
2022/10/09 04:46:44;;;;;;;11.05;3.30;;;;;;;;;;5051134;28;20041;-68
2022/10/09 04:49:13;;;;;;;10.63;3.35;;;;;;;;;;5049007;28;20368;-69
2022/10/09 04:51:40;;;;;;;11.55;3.40;;;;;;;;;;5049126;28;20041;-70
2022/10/09 04:54:06;;;;;;;9.55;3.28;;;;;;;;;;5049592;28;20047;-68
2022/10/09 04:56:32;;;;;;;10.82;2.90;;;;;;;;;;5050355;28;20148;-71
2022/10/09 04:58:58;;;;;;;15.00;3.40;;;;;;;;;;5051129;28;20130;-69
2022/10/09 05:01:25;;;;;;;12.15;2.65;;;;;;;;;;5046752;28;20410;-69
2022/10/09 05:03:52;;;;;;;9.73;2.90;;;;;;;;;;5049261;28;20037;-68
2022/10/09 05:06:20;;;;;;;14.27;2.80;;;;;;;;;;5049912;28;20051;-70
2022/10/09 05:08:46;;;;;;;13.88;3.17;;;;;;;;;;5050182;28;20498;-67
2022/10/09 05:11:16;;;;;;;7.03;2.97;;;;;;;;;;5050524;28;20049;-69
2022/10/09 05:13:45;;;;;;;15.88;3.28;;;;;;;;;;5051544;28;20045;-67
2022/10/09 05:16:14;;;;;;;13.40;3.10;;;;;;;;;;5052485;28;20037;-70
2022/10/09 05:18:49;;;;;;;10.05;2.85;;;;;;;;;;5042601;28;20053;-69
2022/10/09 05:21:15;;;;;;;12.57;2.88;;;;;;;;;;5046032;28;20144;-69
2022/10/09 05:23:41;;;;;;;10.05;3.00;;;;;;;;;;5043521;28;20084;-70
2022/10/09 05:26:14;;;;;;;11.13;2.97;;;;;;;;;;5051599;28;20052;-70
2022/10/09 05:28:40;;;;;;;11.43;2.90;;;;;;;;;;5050462;28;20049;-70
2022/10/09 05:31:07;;;;;;;10.30;2.92;;;;;;;;;;5049572;28;20045;-70
2022/10/09 05:33:33;;;;;;;11.65;2.90;;;;;;;;;;5046912;28;20451;-69
2022/10/09 05:36:02;;;;;;;9.45;2.80;;;;;;;;;;5042334;28;20424;-67
2022/10/09 05:38:29;;;;;;;10.07;2.80;;;;;;;;;;5049103;28;20080;-67
2022/10/09 05:41:00;;;;;;;9.77;3.25;;;;;;;;;;5050406;28;20037;-70
2022/10/09 05:43:37;;;;;;;10.55;2.95;;;;;;;;;;5049018;28;20102;-69
2022/10/09 05:46:15;;;;;;;8.95;2.92;;;;;;;;;;5049185;28;20476;-69
2022/10/09 05:48:42;;;;;;;14.50;3.20;;;;;;;;;;5050485;28;20314;-66
2022/10/09 05:51:14;;;;;;;8.15;2.90;;;;;;;;;;5043017;28;20098;-67
2022/10/09 05:53:41;;;;;;;8.77;3.15;;;;;;;;;;5043557;28;20873;-69
2022/10/09 05:56:16;;;;;;;13.38;2.75;;;;;;;;;;5049820;28;20399;-68
2022/10/09 05:58:43;;;;;;;14.10;3.00;;;;;;;;;;5049450;28;20049;-68
2022/10/09 06:01:10;;;;;;;8.95;3.08;;;;;;;;;;5043612;28;20065;-69
2022/10/09 06:03:36;;;;;;;10.70;3.40;;;;;;;;;;5039505;28;20049;-70
2022/10/09 06:06:04;;;;;;;12.13;3.22;;;;;;;;;;5043530;28;20040;-68
2022/10/09 06:08:35;;;;;;;11.27;2.70;;;;;;;;;;5042186;28;20037;-70
2022/10/09 06:11:16;;;;;;;9.25;3.20;;;;;;;;;;5047193;28;20040;-70
2022/10/09 06:13:43;;;;;;;10.40;2.88;;;;;;;;;;5047039;28;20037;-67
2022/10/09 06:16:13;;;;;;;8.77;2.83;;;;;;;;;;5049749;28;20041;-71
2022/10/09 06:18:41;;;;;;;10.75;3.22;;;;;;;;;;5036820;28;20132;-67
2022/10/09 06:21:07;;;;;;;8.57;3.03;;;;;;;;;;5028527;28;20102;-66
2022/10/09 06:23:34;;;;;;;9.18;3.20;;;;;;;;;;5036609;28;20060;-66
2022/10/09 06:26:04;;;;;;;13.82;3.47;;;;;;;;;;5039697;28;20041;-67
2022/10/09 06:28:32;;;;;;;6.85;3.20;;;;;;;;;;5033040;28;20095;-67
2022/10/09 06:31:03;;;;;;;4.72;2.65;;;;;;;;;;5028619;28;20407;-67
2022/10/09 06:33:34;;;;;;;11.45;3.15;;;;;;;;;;5038798;28;20045;-68
2022/10/09 06:36:09;;;;;;;11.10;3.03;;;;;;;;;;5040800;28;20061;-67
2022/10/09 06:38:36;;;;;;;7.60;3.17;;;;;;;;;;5035026;28;20041;-67
2022/10/09 06:41:04;;;;;;;13.02;3.55;;;;;;;;;;5039441;28;20053;-68
2022/10/09 06:43:30;;;;;;;9.55;3.13;;;;;;;;;;5040212;28;20052;-67
2022/10/09 06:46:00;;;;;;;9.52;3.20;;;;;;;;;;5039411;28;20061;-69
2022/10/09 06:48:30;;;;;;;9.32;3.08;;;;;;;;;;5039036;28;20134;-67
2022/10/09 06:51:04;;;;;;;10.15;3.40;;;;;;;;;;5035839;28;20045;-67
2022/10/09 06:53:34;;;;;;;11.32;3.28;;;;;;;;;;5033693;28;20049;-69
2022/10/09 06:56:00;;;;;;;9.02;2.92;;;;;;;;;;5038956;28;20055;-67
2022/10/09 06:58:26;;;;;;;11.50;3.40;;;;;;;;;;5036947;28;20113;-66
2022/10/09 07:01:09;;;;;;;11.40;3.60;;;;;;;;;;5029260;28;20045;-70
2022/10/09 07:03:36;;;;;;;10.63;3.53;;;;;;;;;;5041155;28;20058;-68
2022/10/09 07:06:05;;;;;;;11.45;3.25;;;;;;;;;;5039321;28;20061;-70
2022/10/09 07:08:31;;;;;;;10.93;3.30;;;;;;;;;;5040467;28;20048;-67
2022/10/09 07:10:57;;;;;;;15.95;4.00;;;;;;;;;;5038903;28;20616;-68
2022/10/09 07:13:23;;;;;;;14.80;3.10;;;;;;;;;;5039642;28;20510;-70
2022/10/09 07:15:49;;;;;;;11.88;3.42;;;;;;;;;;5035384;28;20091;-65
2022/10/09 07:18:15;;;;;;;10.95;3.15;;;;;;;;;;5036117;28;20329;-67
2022/10/09 07:20:40;;;;;;;10.32;4.05;;;;;;;;;;5032867;28;20049;-67
2022/10/09 07:23:06;;;;;;;11.07;3.22;;;;;;;;;;5038702;28;20519;-67
2022/10/09 07:25:37;;;;;;;16.50;4.35;;;;;;;;;;5040311;28;20056;-68
2022/10/09 07:28:03;;;;;;;14.52;3.83;;;;;;;;;;5038627;28;20049;-68
2022/10/09 07:30:29;;;;;;;10.82;3.80;;;;;;;;;;5038549;28;20052;-69
2022/10/09 07:32:55;;;;;;;9.65;3.60;;;;;;;;;;5042102;28;20048;-72
2022/10/09 07:35:21;;;;;;;9.95;3.90;;;;;;;;;;5043491;28;20104;-68
2022/10/09 07:37:46;;;;;;;10.57;3.28;;;;;;;;;;5040478;28;20694;-66
2022/10/09 07:40:12;;;;;;;9.85;3.45;;;;;;;;;;5037492;28;20114;-68
2022/10/09 07:42:38;;;;;;;9.85;3.72;;;;;;;;;;5041203;28;20418;-67
2022/10/09 07:45:04;;;;;;;10.00;3.70;;;;;;;;;;5036944;28;20045;-68
2022/10/09 07:47:30;;;;;;;12.98;3.47;;;;;;;;;;5038316;28;20578;-66
2022/10/09 07:49:56;;;;;;;12.18;3.58;;;;;;;;;;5037772;28;20053;-67
2022/10/09 07:52:22;;;;;;;16.38;3.70;;;;;;;;;;5038288;28;20052;-69
2022/10/09 07:54:47;;;;;;;13.13;3.65;;;;;;;;;;5036857;28;20041;-71
2022/10/09 07:57:13;;;;;;;10.98;3.97;;;;;;;;;;5040303;28;20867;-69
2022/10/09 07:59:40;;;;;;;11.52;4.13;;;;;;;;;;5038198;28;20041;-68
2022/10/09 08:02:05;;;;;;;13.82;4.30;;;;;;;;;;5036968;28;20037;-69
2022/10/09 08:04:31;;;;;;;8.50;3.33;;;;;;;;;;5036731;28;20083;-67
2022/10/09 08:06:58;;;;;;;10.18;3.53;;;;;;;;;;5037746;28;20057;-69
2022/10/09 08:09:24;;;;;;;15.35;4.93;;;;;;;;;;5037216;28;20057;-70
2022/10/09 08:11:51;;;;;;;10.10;4.07;;;;;;;;;;5030262;28;20057;-70
2022/10/09 08:14:17;;;;;;;9.00;4.00;;;;;;;;;;5034237;28;20414;-66
2022/10/09 08:16:43;;;;;;;8.05;3.78;;;;;;;;;;5037975;28;20145;-72
2022/10/09 08:19:09;;;;;;;12.18;3.97;;;;;;;;;;5043960;28;20053;-73
2022/10/09 08:21:35;;;;;;;10.23;3.70;;;;;;;;;;5041345;28;20052;-73
2022/10/09 08:24:01;;;;;;;8.00;4.00;;;;;;;;;;5043389;28;20384;-68
2022/10/09 08:26:29;;;;;;;10.05;3.97;;;;;;;;;;5044514;28;20068;-71
2022/10/09 08:28:59;;;;;;;12.25;4.30;;;;;;;;;;5044934;28;20113;-74
2022/10/09 08:31:26;;;;;;;14.25;4.53;;;;;;;;;;5043183;28;20598;-67
2022/10/09 08:33:54;;;;;;;18.27;4.60;;;;;;;;;;5048941;28;20045;-69
2022/10/09 08:36:20;;;;;;;10.00;4.10;;;;;;;;;;5049683;28;20053;-72
2022/10/09 08:38:46;;;;;;;13.45;3.83;;;;;;;;;;5044390;28;20048;-72
2022/10/09 08:41:40;;;;;;;11.15;4.93;;;;;;;;;;5041008;28;20096;-75
2022/10/09 08:44:30;;;;;;;12.60;4.72;;;;;;;;;;5049325;28;20083;-74
2022/10/09 08:47:02;;;;;;;12.45;4.45;;;;;;;;;;5047700;28;20410;-74
2022/10/09 08:50:02;;;;;;;11.70;4.03;;;;;;;;;;5047911;28;20045;-72
2022/10/09 08:52:51;;;;;;;13.85;4.72;;;;;;;;;;5044967;28;20067;-69
2022/10/09 08:55:31;;;;;;;10.27;3.80;;;;;;;;;;5048797;28;20055;-69
2022/10/09 08:58:03;;;;;;;11.60;3.97;;;;;;;;;;5038736;28;20037;-72
2022/10/09 09:01:01;;;;;;;17.15;4.43;;;;;;;;;;5042599;28;20048;-67
2022/10/09 09:03:39;;;;;;;10.65;3.67;;;;;;;;;;5041141;28;20099;-73
2022/10/09 09:06:51;;;;;;;10.25;4.00;;;;;;;;;;5045302;28;20056;-72
2022/10/09 09:09:32;;;;;;;8.07;3.65;;;;;;;;;;5039912;28;20045;-69
2022/10/09 09:12:10;;;;;;;9.93;4.57;;;;;;;;;;5043693;28;20045;-71
2022/10/09 09:15:00;;;;;;;10.45;3.83;;;;;;;;;;5039404;28;20041;-72
2022/10/09 09:17:32;;;;;;;11.15;3.47;;;;;;;;;;5047853;28;20060;-73
2022/10/09 09:20:11;;;;;;;13.80;4.15;;;;;;;;;;5047454;28;20049;-71
2022/10/09 09:22:44;;;;;;;11.60;4.28;;;;;;;;;;5048024;28;20071;-72
2022/10/09 09:25:35;;;;;;;11.55;3.72;;;;;;;;;;5051526;28;20052;-70
2022/10/09 09:28:21;;;;;;;15.30;3.50;;;;;;;;;;5046267;28;20095;-72
2022/10/09 09:30:56;;;;;;;9.90;3.55;;;;;;;;;;5051323;28;21616;-71
2022/10/09 09:33:57;;;;;;;9.73;3.30;;;;;;;;;;5048954;28;20041;-70
2022/10/09 09:36:32;;;;;;;15.90;3.75;;;;;;;;;;5031227;28;20053;-71
2022/10/09 09:38:58;;;;;;;11.30;3.47;;;;;;;;;;5033596;28;20037;-75
2022/10/09 09:41:24;;;;;;;12.25;3.20;;;;;;;;;;5048631;28;20045;-74
2022/10/09 09:43:50;;;;;;;9.73;2.95;;;;;;;;;;5035492;28;20044;-70
2022/10/09 09:46:27;;;;;;;9.68;3.78;;;;;;;;;;5035853;28;20059;-68
2022/10/09 09:48:54;;;;;;;13.38;3.85;;;;;;;;;;5042206;28;20091;-73
2022/10/09 09:51:29;;;;;;;12.90;4.30;;;;;;;;;;5058120;28;20143;-71
2022/10/09 09:53:57;;;;;;;9.48;3.80;;;;;;;;;;5058390;28;20045;-72
2022/10/09 09:56:37;;;;;;;10.50;3.83;;;;;;;;;;5053786;28;20057;-70
2022/10/09 09:59:03;;;;;;;10.35;4.50;;;;;;;;;;5047846;28;20406;-70
2022/10/09 10:01:30;;;;;;;15.25;5.50;;;;;;;;;;5047765;28;20146;-70
2022/10/09 10:03:59;;;;;;;15.73;4.88;;;;;;;;;;5051296;28;20044;-72
2022/10/09 10:06:34;;;;;;;8.65;3.83;;;;;;;;;;5058036;28;20045;-71
2022/10/09 10:09:11;;;;;;;10.20;3.13;;;;;;;;;;5048337;28;20044;-70
2022/10/09 10:11:44;;;;;;;12.98;4.45;;;;;;;;;;5047694;28;20613;-66
2022/10/09 10:14:15;;;;;;;8.88;3.50;;;;;;;;;;5044514;28;20048;-73
2022/10/09 10:16:42;;;;;;;13.57;4.57;;;;;;;;;;5051806;28;20556;-69
2022/10/09 10:19:38;;;;;;;13.02;4.22;;;;;;;;;;5045749;28;20041;-74
2022/10/09 10:22:20;;;;;;;9.35;3.33;;;;;;;;;;5037815;28;20117;-72
2022/10/09 10:24:48;;;;;;;13.60;3.67;;;;;;;;;;5038001;28;20045;-71
2022/10/09 10:27:28;;;;;;;8.32;3.83;;;;;;;;;;5038625;28;20055;-72
2022/10/09 10:29:58;;;;;;;12.38;4.25;;;;;;;;;;5044017;28;20045;-74
2022/10/09 10:32:49;;;;;;;9.40;3.70;;;;;;;;;;5041388;28;20089;-74
2022/10/09 10:35:27;;;;;;;10.20;3.70;;;;;;;;;;5041342;28;20076;-69
2022/10/09 10:38:21;;;;;;;9.60;3.03;;;;;;;;;;5046232;28;20048;-75
2022/10/09 10:41:42;;;;;;;8.35;3.45;;;;;;;;;;5033735;28;20068;-72
2022/10/09 10:44:43;;;;;;;10.40;3.53;;;;;;;;;;4982149;28;20141;-68
2022/10/09 10:47:18;;;;;;;10.52;3.67;;;;;;;;;;4954178;28;20039;-71
2022/10/09 10:49:44;;;;;;;8.27;3.28;;;;;;;;;;4984772;28;20199;-74
2022/10/09 10:52:39;;;;;;;10.52;3.20;;;;;;;;;;4986473;28;20049;-72
2022/10/09 10:55:28;;;;;;;8.77;3.55;;;;;;;;;;4982294;28;20054;-74
2022/10/09 10:58:15;;;;;;;12.85;3.45;;;;;;;;;;4981711;28;20182;-74
2022/10/09 11:00:51;;;;;;;14.70;3.97;;;;;;;;;;4997716;28;20088;-73
2022/10/09 11:03:53;;;;;;;11.82;4.10;;;;;;;;;;4989090;28;20136;-74
2022/10/09 11:06:43;;;;;;;9.02;3.40;;;;;;;;;;4986219;28;20050;-70
2022/10/09 11:09:28;;;;;;;5.35;3.25;;;;;;;;;;4981179;28;20042;-75
2022/10/09 11:12:05;;;;;;;10.15;4.30;;;;;;;;;;4987075;28;20542;-72
2022/10/09 11:14:44;;;;;;;11.23;3.80;;;;;;;;;;4983520;28;20058;-71
2022/10/09 11:17:25;;;;;;;5.95;3.17;;;;;;;;;;4990410;28;20053;-74
2022/10/09 11:20:00;;;;;;;9.80;3.47;;;;;;;;;;5044204;28;20060;-75
2022/10/09 11:22:42;;;;;;;6.20;3.15;;;;;;;;;;5043564;28;20834;-73
2022/10/09 11:25:17;;;;;;;9.55;3.50;;;;;;;;;;5045018;28;20125;-70
2022/10/09 11:27:51;;;;;;;8.38;3.60;;;;;;;;;;5038850;28;20048;-72
2022/10/09 11:30:17;;;;;;;7.88;3.45;;;;;;;;;;5049070;28;20037;-73
2022/10/09 11:32:59;;;;;;;7.22;3.42;;;;;;;;;;5047088;28;20045;-73
2022/10/09 11:35:47;;;;;;;9.65;3.10;;;;;;;;;;5048327;28;20056;-73
2022/10/09 11:38:37;;;;;;;8.73;3.05;;;;;;;;;;5047948;28;20131;-71
2022/10/09 11:41:04;;;;;;;11.98;3.78;;;;;;;;;;5041463;28;20044;-73
2022/10/09 11:43:48;;;;;;;8.55;3.13;;;;;;;;;;5047447;28;20041;-72
2022/10/09 11:46:27;;;;;;;8.43;3.40;;;;;;;;;;5050048;28;20052;-73
2022/10/09 11:49:17;;;;;;;9.10;3.67;;;;;;;;;;5046087;28;20067;-73
2022/10/09 11:51:50;;;;;;;10.38;3.05;;;;;;;;;;5050073;28;20114;-71
2022/10/09 11:54:18;;;;;;;9.53;3.60;;;;;;;;;;5051022;28;20066;-74
2022/10/09 11:56:55;;;;;;;11.13;3.75;;;;;;;;;;5051712;28;20041;-74
2022/10/09 11:59:29;;;;;;;9.07;2.90;;;;;;;;;;5051527;28;20418;-71
2022/10/09 12:01:57;;;;;;;16.33;4.22;;;;;;;;;;5050935;28;20063;-72
2022/10/09 12:04:32;;;;;;;10.38;3.75;;;;;;;;;;5051176;28;20049;-71
2022/10/09 12:07:01;;;;;;;11.20;3.53;;;;;;;;;;5052149;28;20064;-73
2022/10/09 12:09:34;;;;;;;9.98;3.45;;;;;;;;;;5053290;28;20052;-73
2022/10/09 12:12:05;;;;;;;9.80;3.75;;;;;;;;;;5053552;28;20052;-71
2022/10/09 12:14:34;;;;;;;12.65;3.55;;;;;;;;;;5051186;28;20072;-76
2022/10/09 12:17:00;;;;;;;8.98;3.47;;;;;;;;;;5054609;28;20434;-71
2022/10/09 12:19:36;;;;;;;8.95;3.45;;;;;;;;;;5053653;28;20374;-76
2022/10/09 12:22:03;;;;;;;7.28;2.92;;;;;;;;;;5050682;28;20047;-74
2022/10/09 12:24:41;;;;;;;8.27;3.70;;;;;;;;;;5050009;28;20051;-73
2022/10/09 12:27:08;;;;;;;11.18;3.45;;;;;;;;;;5051374;28;20045;-76
2022/10/09 12:29:46;;;;;;;7.88;2.80;;;;;;;;;;5048838;28;20490;-71
2022/10/09 12:32:32;;;;;;;13.05;3.90;;;;;;;;;;5049779;28;20060;-72
2022/10/09 12:34:59;;;;;;;6.45;2.88;;;;;;;;;;5037258;28;20441;-68
2022/10/09 12:37:33;;;;;;;8.18;3.15;;;;;;;;;;5050922;28;20056;-72
2022/10/09 12:40:30;;;;;;;8.68;3.15;;;;;;;;;;5040576;28;20110;-73
2022/10/09 12:42:58;;;;;;;6.38;3.00;;;;;;;;;;5049801;28;20045;-70
2022/10/09 12:45:26;;;;;;;5.20;2.88;;;;;;;;;;5049956;28;20041;-72
2022/10/09 12:47:53;;;;;;;6.82;3.25;;;;;;;;;;5047720;28;20045;-71
2022/10/09 12:50:31;;;;;;;9.27;2.88;;;;;;;;;;5051435;28;20100;-68
2022/10/09 12:53:03;;;;;;;9.05;2.80;;;;;;;;;;5050680;28;20230;-72
2022/10/09 12:55:54;;;;;;;6.65;3.25;;;;;;;;;;5050950;28;20438;-71
2022/10/09 12:58:24;;;;;;;9.45;3.75;;;;;;;;;;5047320;28;20396;-73
2022/10/09 13:01:03;;;;;;;9.07;3.10;;;;;;;;;;5051293;28;20096;-71
2022/10/09 13:03:38;;;;;;;7.25;2.47;;;;;;;;;;5047046;28;20554;-71
2022/10/09 13:06:15;;;;;;;8.20;2.50;;;;;;;;;;5037318;28;20155;-71
2022/10/09 13:08:41;;;;;;;9.63;2.90;;;;;;;;;;5047503;28;20045;-67
2022/10/09 13:11:29;;;;;;;9.65;3.03;;;;;;;;;;5046092;28;20041;-69
2022/10/09 13:13:55;;;;;;;8.77;3.47;;;;;;;;;;5050125;28;20049;-72
2022/10/09 13:16:22;;;;;;;9.30;2.65;;;;;;;;;;5050117;28;20510;-73
2022/10/09 13:18:59;;;;;;;6.15;2.65;;;;;;;;;;5049872;28;20125;-74
2022/10/09 13:21:25;;;;;;;10.48;2.92;;;;;;;;;;5048602;28;20060;-68
2022/10/09 13:23:51;;;;;;;6.60;2.60;;;;;;;;;;5049995;28;20102;-74
2022/10/09 13:26:25;;;;;;;8.63;3.05;;;;;;;;;;5049422;28;20143;-65
2022/10/09 13:28:52;;;;;;;;;;;;;;;;;;5050688;28;20048;-72
2022/10/09 13:31:19;;;;;;;10.27;3.17;;;;;;;;;;5045944;28;19924;-72
2022/10/09 13:33:45;;;;;;;10.43;3.20;;;;;;;;;;5048446;28;20517;-73
2022/10/09 13:36:12;;;;;;;11.00;3.35;;;;;;;;;;5047794;28;20446;-74
2022/10/09 13:38:39;;;;;;;13.00;3.28;;;;;;;;;;5046464;28;20044;-70
2022/10/09 13:41:06;;;;;;;7.82;2.67;;;;;;;;;;5043534;28;20127;-73
2022/10/09 13:43:32;;;;;;;9.70;2.95;;;;;;;;;;5036638;28;20495;-71
2022/10/09 13:45:58;;;;;;;4.32;2.30;;;;;;;;;;5048453;28;20044;-75
2022/10/09 13:48:28;;;;;;;9.48;2.45;;;;;;;;;;5048030;28;20056;-72
2022/10/09 13:50:54;;;;;;;8.90;2.55;;;;;;;;;;5046983;28;20037;-68
2022/10/09 13:53:20;;;;;;;5.32;2.42;;;;;;;;;;5049449;28;20410;-75
2022/10/09 13:55:45;;;;;;;8.65;2.50;;;;;;;;;;5049633;28;20048;-70
2022/10/09 13:58:11;;;;;;;6.20;2.35;;;;;;;;;;5051628;28;20128;-74
2022/10/09 14:00:37;;;;;;;10.63;2.28;;;;;;;;;;5045108;28;20132;-69
2022/10/09 14:03:03;;;;;;;9.27;2.40;;;;;;;;;;5049877;28;20166;-72
2022/10/09 14:05:29;;;;;;;7.72;2.55;;;;;;;;;;5049263;28;20447;-67
2022/10/09 14:07:55;;;;;;;6.47;2.28;;;;;;;;;;5050276;28;20354;-72
2022/10/09 14:10:21;;;;;;;6.70;2.20;;;;;;;;;;5047701;28;20110;-73
2022/10/09 14:12:50;;;;;;;7.45;2.80;;;;;;;;;;5049409;28;20051;-74
2022/10/09 14:15:17;;;;;;;10.13;2.40;;;;;;;;;;5040204;28;20128;-75
2022/10/09 14:17:42;;;;;;;8.60;2.30;;;;;;;;;;5049171;28;20449;-69
2022/10/09 14:20:08;;;;;;;7.93;2.10;;;;;;;;;;5049926;28;20041;-73
2022/10/09 14:22:34;;;;;;;9.95;2.50;;;;;;;;;;5047516;28;20075;-71
2022/10/09 14:25:00;;;;;;;7.43;2.42;;;;;;;;;;5045762;28;20045;-72
2022/10/09 14:27:26;;;;;;;7.38;1.90;;;;;;;;;;5048703;28;20148;-70
2022/10/09 14:29:52;;;;;;;6.82;2.05;;;;;;;;;;5035928;28;20546;-74
2022/10/09 14:32:18;;;;;;;8.25;2.50;;;;;;;;;;5041832;28;20130;-75
2022/10/09 14:34:44;;;;;;;9.52;2.20;;;;;;;;;;5046438;28;20038;-73
2022/10/09 14:37:09;;;;;;;9.00;2.00;;;;;;;;;;5049238;28;20399;-72
2022/10/09 14:39:35;;;;;;;7.43;2.13;;;;;;;;;;5048073;28;20042;-73
2022/10/09 14:42:02;;;;;;;8.88;2.10;;;;;;;;;;5047303;28;20045;-71
2022/10/09 14:44:27;;;;;;;8.95;2.30;;;;;;;;;;5050316;28;20142;-77
2022/10/09 14:46:53;;;;;;;9.90;2.40;;;;;;;;;;5048774;28;20048;-73
2022/10/09 14:49:20;;;;;;;11.10;1.95;;;;;;;;;;5050147;28;20211;-73
2022/10/09 14:51:46;;;;;;;8.43;2.20;;;;;;;;;;5047519;28;20049;-67
2022/10/09 14:54:12;;;;;;;5.72;1.95;;;;;;;;;;5048306;28;20045;-76
2022/10/09 14:56:39;;;;;;;9.07;2.60;;;;;;;;;;5049555;28;20049;-73
2022/10/09 14:59:05;;;;;;;6.80;1.92;;;;;;;;;;5048644;28;20451;-73